createdAt,value
2018-06-22T00:00:18.058Z,11.79
2018-06-22T00:02:47.379Z,11.70
2018-06-22T00:05:16.574Z,11.76
2018-06-22T00:07:46.415Z,11.68
2018-06-22T00:10:15.543Z,11.54
2018-06-22T00:12:44.695Z,11.48
2018-06-22T00:15:13.835Z,11.45
2018-06-22T00:17:43.799Z,11.34
2018-06-22T00:20:12.953Z,11.41
2018-06-22T00:22:42.078Z,11.36
2018-06-22T00:25:11.250Z,11.38
2018-06-22T00:27:40.401Z,11.34
2018-06-22T00:30:09.626Z,11.26
2018-06-22T00:32:38.750Z,11.24
2018-06-22T00:35:07.906Z,11.18
2018-06-22T00:37:37.363Z,11.25
2018-06-22T00:40:07.015Z,11.10
2018-06-22T00:42:36.330Z,11.08
2018-06-22T00:45:06.330Z,10.93
2018-06-22T00:47:35.806Z,10.93
2018-06-22T00:50:05.774Z,10.93
2018-06-22T00:52:35.055Z,10.87
2018-06-22T00:55:04.991Z,10.90
2018-06-22T00:57:34.260Z,10.73
2018-06-22T01:00:03.976Z,10.72
2018-06-22T01:02:33.555Z,10.65
2018-06-22T01:05:02.922Z,10.71
2018-06-22T01:07:35.379Z,10.70
2018-06-22T01:10:05.179Z,10.67
2018-06-22T01:12:34.353Z,10.55
2018-06-22T01:15:05.924Z,10.49
2018-06-22T01:17:35.382Z,10.72
2018-06-22T01:20:04.599Z,10.58
2018-06-22T01:22:33.775Z,10.45
2018-06-22T01:25:02.959Z,10.35
2018-06-22T01:27:32.167Z,10.31
2018-06-22T01:30:01.331Z,10.29
2018-06-22T01:32:30.607Z,10.24
2018-06-22T01:35:00.279Z,10.21
2018-06-22T01:37:29.515Z,10.28
2018-06-22T01:39:59.370Z,10.25
2018-06-22T01:42:28.684Z,10.28
2018-06-22T01:44:58.014Z,10.13
2018-06-22T01:47:27.582Z,10.10
2018-06-22T01:49:56.988Z,9.99
2018-06-22T01:52:26.270Z,9.99
2018-06-22T01:54:55.654Z,9.97
2018-06-22T01:57:24.854Z,9.85
2018-06-22T01:59:53.994Z,10.01
2018-06-22T02:02:24.483Z,9.93
2018-06-22T02:04:53.625Z,9.84
2018-06-22T02:07:23.006Z,9.91
2018-06-22T02:09:52.185Z,9.89
2018-06-22T02:12:21.359Z,9.82
2018-06-22T02:14:50.511Z,9.76
2018-06-22T02:17:19.746Z,9.75
2018-06-22T02:19:48.908Z,9.63
2018-06-22T02:22:20.506Z,9.60
2018-06-22T02:24:49.610Z,9.58
2018-06-22T02:27:18.746Z,9.55
2018-06-22T02:29:47.866Z,9.48
2018-06-22T02:32:17.018Z,9.38
2018-06-22T02:34:47.577Z,9.40
2018-06-22T02:37:16.943Z,9.51
2018-06-22T02:39:46.600Z,9.44
2018-06-22T02:42:15.718Z,9.31
2018-06-22T02:44:44.836Z,9.32
2018-06-22T02:47:15.519Z,9.29
2018-06-22T02:49:44.669Z,9.22
2018-06-22T02:52:13.758Z,9.32
2018-06-22T02:54:42.899Z,9.18
2018-06-22T02:57:16.326Z,9.20
2018-06-22T02:59:45.994Z,9.18
2018-06-22T03:02:15.110Z,9.10
2018-06-22T03:04:44.923Z,8.95
2018-06-22T03:07:14.071Z,9.10
2018-06-22T03:09:43.182Z,9.07
2018-06-22T03:12:12.327Z,9.17
2018-06-22T03:14:41.379Z,9.15
2018-06-22T03:17:10.447Z,9.06
2018-06-22T03:19:39.535Z,9.10
2018-06-22T03:22:08.587Z,9.11
2018-06-22T03:24:39.323Z,9.10
2018-06-22T03:27:08.387Z,9.09
2018-06-22T03:29:37.470Z,9.21
2018-06-22T03:32:06.564Z,9.10
2018-06-22T03:34:35.636Z,9.05
2018-06-22T03:37:04.704Z,9.04
2018-06-22T03:39:33.874Z,9.06
2018-06-22T03:42:02.908Z,9.08
2018-06-22T03:44:31.979Z,9.14
2018-06-22T03:47:01.055Z,9.14
2018-06-22T03:49:30.175Z,9.15
2018-06-22T03:51:59.344Z,9.24
2018-06-22T03:54:28.478Z,9.23
2018-06-22T03:56:57.571Z,9.26
2018-06-22T03:59:27.338Z,9.36
2018-06-22T04:01:56.659Z,9.67
2018-06-22T04:04:26.457Z,10.15
2018-06-22T04:06:56.291Z,10.73
2018-06-22T04:09:25.545Z,11.01
2018-06-22T04:11:54.924Z,11.52
2018-06-22T04:14:24.599Z,11.67
2018-06-22T04:16:54.894Z,11.89
2018-06-22T04:19:24.436Z,11.79
2018-06-22T04:21:54.205Z,11.79
2018-06-22T04:24:23.508Z,12.38
2018-06-22T04:26:53.342Z,11.85
2018-06-22T04:29:22.646Z,12.15
2018-06-22T04:31:52.291Z,12.45
2018-06-22T04:34:21.424Z,12.61
2018-06-22T04:36:50.491Z,12.93
2018-06-22T04:39:20.282Z,13.06
2018-06-22T04:41:49.455Z,13.53
2018-06-22T04:44:18.555Z,13.36
2018-06-22T04:46:47.698Z,13.86
2018-06-22T04:49:16.771Z,14.09
2018-06-22T04:51:45.858Z,14.04
2018-06-22T04:54:15.028Z,13.68
2018-06-22T04:56:44.115Z,12.89
2018-06-22T04:59:13.195Z,12.93
2018-06-22T05:01:42.282Z,13.56
2018-06-22T05:04:11.374Z,13.92
2018-06-22T05:06:40.427Z,14.21
2018-06-22T05:09:10.152Z,14.93
2018-06-22T05:11:39.491Z,15.32
2018-06-22T05:14:09.721Z,15.18
2018-06-22T05:16:39.344Z,14.51
2018-06-22T05:19:08.578Z,14.36
2018-06-22T05:21:37.830Z,14.42
2018-06-22T05:24:07.107Z,14.19
2018-06-22T05:26:37.162Z,13.84
2018-06-22T05:29:06.445Z,13.56
2018-06-22T05:31:37.250Z,13.58
2018-06-22T05:34:08.625Z,12.58
2018-06-22T05:36:52.117Z,12.73
2018-06-22T05:39:21.702Z,13.16
2018-06-22T05:41:51.035Z,13.70
2018-06-22T05:44:20.771Z,13.43
2018-06-22T05:46:50.054Z,13.38
2018-06-22T05:49:19.234Z,12.96
2018-06-22T05:51:48.295Z,13.86
2018-06-22T05:54:17.450Z,13.91
2018-06-22T05:56:47.021Z,14.04
2018-06-22T05:59:16.079Z,13.54
2018-06-22T06:01:45.203Z,12.77
2018-06-22T06:04:14.302Z,13.59
2018-06-22T06:06:43.375Z,14.88
2018-06-22T06:09:13.059Z,14.93
2018-06-22T06:11:42.278Z,14.96
2018-06-22T06:14:11.366Z,14.80
2018-06-22T06:16:40.461Z,14.96
2018-06-22T06:19:09.559Z,15.57
2018-06-22T06:21:38.643Z,16.57
2018-06-22T06:24:07.751Z,16.42
2018-06-22T06:26:36.895Z,16.82
2018-06-22T06:29:05.994Z,17.12
2018-06-22T06:31:35.095Z,16.55
2018-06-22T06:34:04.190Z,16.61
2018-06-22T06:36:33.327Z,17.84
2018-06-22T06:39:02.387Z,19.24
2018-06-22T06:41:31.503Z,17.56
2018-06-22T06:44:00.584Z,18.37
2018-06-22T06:46:29.683Z,18.37
2018-06-22T06:48:58.995Z,17.87
2018-06-22T06:51:28.090Z,18.75
2018-06-22T06:53:57.203Z,18.44
2018-06-22T06:56:26.338Z,17.54
2018-06-22T06:58:55.524Z,17.37
2018-06-22T07:01:24.595Z,18.25
2018-06-22T07:03:53.647Z,17.70
2018-06-22T07:06:22.718Z,18.20
2018-06-22T07:08:52.367Z,18.37
2018-06-22T07:11:21.705Z,17.30
2018-06-22T07:13:50.458Z,17.14
2018-06-22T07:16:19.594Z,15.85
2018-06-22T07:18:49.159Z,16.48
2018-06-22T07:21:18.239Z,18.92
2018-06-22T07:23:47.679Z,19.85
2018-06-22T07:26:16.755Z,18.95
2018-06-22T07:28:45.841Z,19.25
2018-06-22T07:31:14.959Z,18.63
2018-06-22T07:33:44.070Z,19.27
2018-06-22T07:36:13.187Z,21.12
2018-06-22T07:38:42.322Z,17.72
2018-06-22T07:41:11.834Z,16.47
2018-06-22T07:43:41.473Z,15.69
2018-06-22T07:46:11.094Z,15.13
2018-06-22T07:48:40.367Z,15.49
2018-06-22T07:51:10.264Z,15.00
2018-06-22T07:53:40.038Z,14.75
2018-06-22T07:56:09.498Z,14.39
2018-06-22T07:58:38.722Z,15.12
2018-06-22T08:01:07.764Z,14.66
2018-06-22T08:03:36.832Z,14.95
2018-06-22T08:06:06.118Z,15.42
2018-06-22T08:08:35.721Z,15.36
2018-06-22T08:11:04.914Z,15.55
2018-06-22T08:13:35.379Z,15.39
2018-06-22T08:16:05.383Z,15.32
2018-06-22T08:18:35.284Z,15.15
2018-06-22T08:21:05.120Z,15.54
2018-06-22T08:23:34.376Z,15.55
2018-06-22T08:26:03.483Z,17.36
2018-06-22T08:28:32.530Z,17.00
2018-06-22T08:31:01.587Z,17.09
2018-06-22T08:33:30.678Z,16.60
2018-06-22T08:35:59.776Z,18.96
2018-06-22T08:38:28.862Z,19.90
2018-06-22T08:40:58.350Z,19.96
2018-06-22T08:43:27.675Z,20.37
2018-06-22T08:45:59.155Z,20.19
2018-06-22T08:48:28.241Z,20.26
2018-06-22T08:50:57.503Z,20.19
2018-06-22T08:53:26.623Z,22.24
2018-06-22T08:55:55.699Z,22.88
2018-06-22T08:58:24.802Z,21.57
2018-06-22T09:00:53.899Z,21.28
2018-06-22T09:03:22.962Z,23.00
2018-06-22T09:05:52.046Z,22.36
2018-06-22T09:08:21.275Z,20.77
2018-06-22T09:10:51.258Z,18.56
2018-06-22T09:13:21.083Z,17.68
2018-06-22T09:15:50.938Z,20.59
2018-06-22T09:18:20.878Z,21.83
2018-06-22T09:20:50.759Z,19.55
2018-06-22T09:23:22.190Z,18.37
2018-06-22T09:25:51.395Z,21.01
2018-06-22T09:28:21.150Z,21.13
2018-06-22T09:30:50.487Z,22.06
2018-06-22T09:33:19.599Z,22.21
2018-06-22T09:35:48.678Z,23.08
2018-06-22T09:38:17.767Z,21.99
2018-06-22T09:40:46.865Z,21.56
2018-06-22T09:43:15.938Z,20.07
2018-06-22T09:45:45.045Z,18.76
2018-06-22T09:48:14.119Z,17.33
2018-06-22T09:50:44.267Z,16.97
2018-06-22T09:53:19.146Z,17.18
2018-06-22T09:55:48.856Z,17.01
2018-06-22T09:58:17.894Z,17.34
2018-06-22T10:00:51.536Z,19.03
2018-06-22T10:03:22.184Z,20.19
2018-06-22T10:05:51.378Z,22.32
2018-06-22T10:08:20.834Z,24.66
2018-06-22T10:10:49.870Z,26.11
2018-06-22T10:13:19.526Z,23.71
2018-06-22T10:15:53.243Z,25.86
2018-06-22T10:18:23.195Z,24.88
2018-06-22T10:20:54.938Z,23.07
2018-06-22T10:23:24.294Z,22.67
2018-06-22T10:25:53.371Z,19.38
2018-06-22T10:28:22.522Z,21.47
2018-06-22T10:30:51.703Z,25.07
2018-06-22T10:33:20.803Z,21.86
2018-06-22T10:35:50.053Z,23.76
2018-06-22T10:38:18.642Z,25.18
2018-06-22T10:40:47.772Z,23.05
2018-06-22T10:43:17.167Z,21.32
2018-06-22T10:45:46.380Z,20.56
2018-06-22T10:48:15.399Z,20.49
2018-06-22T10:50:44.472Z,22.47
2018-06-22T10:53:13.559Z,19.98
2018-06-22T10:55:42.750Z,19.78
2018-06-22T10:58:11.855Z,23.16
2018-06-22T11:00:40.943Z,24.50
2018-06-22T11:03:12.454Z,22.71
2018-06-22T11:05:41.661Z,24.80
2018-06-22T11:08:11.007Z,24.82
2018-06-22T11:10:40.536Z,22.47
2018-06-22T11:13:09.883Z,20.09
2018-06-22T11:15:39.455Z,20.30
2018-06-22T11:18:09.114Z,20.01
2018-06-22T11:20:38.513Z,19.95
2018-06-22T11:23:08.387Z,19.15
2018-06-22T11:25:37.493Z,19.42
2018-06-22T11:28:06.680Z,19.02
2018-06-22T11:30:35.816Z,18.12
2018-06-22T11:33:05.311Z,17.61
2018-06-22T11:35:34.498Z,17.91
2018-06-22T11:38:03.578Z,17.38
2018-06-22T11:40:32.864Z,17.52
2018-06-22T11:43:03.425Z,17.76
2018-06-22T11:45:34.150Z,18.47
2018-06-22T11:48:03.647Z,18.71
2018-06-22T11:50:33.540Z,19.03
2018-06-22T11:53:03.111Z,17.92
2018-06-22T11:55:32.168Z,19.00
2018-06-22T11:58:01.489Z,18.41
2018-06-22T12:00:30.787Z,21.16
2018-06-22T12:03:00.594Z,19.94
2018-06-22T12:05:29.667Z,19.89
2018-06-22T12:07:58.726Z,19.78
2018-06-22T12:10:27.790Z,18.68
2018-06-22T12:12:57.299Z,18.40
2018-06-22T12:15:26.662Z,18.90
2018-06-22T12:17:55.922Z,18.61
2018-06-22T12:20:25.127Z,17.88
2018-06-22T12:22:54.102Z,17.45
2018-06-22T12:25:23.171Z,17.07
2018-06-22T12:27:52.326Z,17.22
2018-06-22T12:30:21.421Z,17.26
2018-06-22T12:32:50.583Z,16.96
2018-06-22T12:35:19.712Z,17.07
2018-06-22T12:37:48.823Z,16.91
2018-06-22T12:40:18.631Z,17.10
2018-06-22T12:42:48.293Z,16.91
2018-06-22T12:45:17.495Z,17.06
2018-06-22T12:47:46.579Z,17.62
2018-06-22T12:50:15.671Z,18.00
2018-06-22T12:52:44.771Z,18.44
2018-06-22T12:55:14.750Z,18.17
2018-06-22T12:57:44.047Z,17.79
2018-06-22T13:00:13.075Z,17.09
2018-06-22T13:02:42.192Z,18.42
2018-06-22T13:05:11.322Z,19.27
2018-06-22T13:07:40.445Z,19.73
2018-06-22T13:10:10.287Z,18.20
2018-06-22T13:12:39.412Z,18.29
2018-06-22T13:15:08.494Z,19.83
2018-06-22T13:17:39.211Z,19.74
2018-06-22T13:20:08.488Z,18.85
2018-06-22T13:22:37.626Z,19.95
2018-06-22T13:25:07.055Z,19.66
2018-06-22T13:27:36.159Z,18.63
2018-06-22T13:30:05.818Z,17.80
2018-06-22T13:32:35.350Z,18.20
2018-06-22T13:35:04.458Z,18.83
2018-06-22T13:37:34.278Z,21.06
2018-06-22T13:40:03.512Z,20.34
2018-06-22T13:42:32.599Z,19.80
2018-06-22T13:45:02.483Z,18.51
2018-06-22T13:47:31.863Z,17.95
2018-06-22T13:50:01.420Z,17.53
2018-06-22T13:52:31.178Z,17.48
2018-06-22T13:55:00.266Z,17.79
2018-06-22T13:57:29.371Z,18.37
2018-06-22T13:59:58.477Z,17.79
2018-06-22T14:02:27.543Z,18.04
2018-06-22T14:05:01.911Z,17.91
2018-06-22T14:07:31.000Z,17.72
2018-06-22T14:10:00.084Z,17.61
2018-06-22T14:12:29.159Z,17.70
2018-06-22T14:14:58.239Z,18.16
2018-06-22T14:17:27.306Z,18.47
2018-06-22T14:19:56.468Z,19.46
2018-06-22T14:22:25.258Z,20.12
2018-06-22T14:24:54.327Z,19.59
2018-06-22T14:27:23.872Z,18.65
2018-06-22T14:29:52.971Z,19.17
2018-06-22T14:32:22.651Z,18.45
2018-06-22T14:34:51.719Z,18.37
2018-06-22T14:37:21.424Z,19.03
2018-06-22T14:39:50.786Z,19.32
2018-06-22T14:42:20.111Z,19.40
2018-06-22T14:44:49.849Z,18.72
2018-06-22T14:47:19.103Z,18.73
2018-06-22T14:49:48.583Z,18.79
2018-06-22T14:52:17.999Z,19.07
2018-06-22T14:54:52.937Z,19.38
2018-06-22T14:57:27.658Z,20.19
2018-06-22T15:00:03.358Z,22.16
2018-06-22T15:02:37.798Z,20.48
2018-06-22T15:05:12.176Z,19.05
2018-06-22T15:07:46.675Z,18.65
2018-06-22T15:10:16.710Z,18.43
2018-06-22T15:12:45.987Z,18.41
2018-06-22T15:15:15.224Z,18.47
2018-06-22T15:17:49.976Z,18.03
2018-06-22T15:20:19.568Z,17.86
2018-06-22T15:22:48.846Z,18.48
2018-06-22T15:25:18.076Z,18.30
2018-06-22T15:27:48.185Z,18.18
2018-06-22T15:30:17.275Z,17.69
2018-06-22T15:32:46.785Z,17.80
2018-06-22T15:35:21.067Z,17.28
2018-06-22T15:37:55.367Z,17.39
2018-06-22T15:40:29.822Z,17.50
2018-06-22T15:43:05.850Z,18.63
2018-06-22T15:47:46.410Z,20.03
2018-06-22T15:50:20.827Z,18.18
2018-06-22T15:52:55.294Z,17.44
2018-06-22T15:55:26.555Z,17.32
2018-06-22T15:57:55.622Z,17.65
2018-06-22T16:00:24.723Z,18.49
2018-06-22T16:02:58.973Z,18.00
2018-06-22T16:05:28.069Z,17.59
2018-06-22T16:07:57.117Z,17.35
2018-06-22T16:10:26.239Z,17.52
2018-06-22T16:12:55.658Z,17.54
2018-06-22T16:15:29.895Z,17.18
2018-06-22T16:18:04.513Z,17.30
2018-06-22T16:20:40.279Z,17.34
2018-06-22T16:23:14.867Z,16.99
2018-06-22T16:25:49.282Z,16.80
2018-06-22T16:28:18.589Z,17.04
2018-06-22T16:30:48.466Z,16.82
2018-06-22T16:33:18.448Z,17.05
2018-06-22T16:35:47.543Z,17.48
2018-06-22T16:38:16.627Z,17.97
2018-06-22T16:40:45.728Z,17.88
2018-06-22T16:43:14.814Z,17.81
2018-06-22T16:45:43.925Z,18.67
2018-06-22T16:48:13.134Z,18.76
2018-06-22T16:50:42.376Z,18.44
2018-06-22T16:53:11.510Z,18.40
2018-06-22T16:55:41.022Z,18.76
2018-06-22T16:58:15.503Z,18.31
2018-06-22T17:00:45.003Z,18.07
2018-06-22T17:03:14.358Z,18.63
2018-06-22T17:05:44.063Z,18.58
2018-06-22T17:08:19.231Z,18.42
2018-06-22T17:10:53.227Z,18.35
2018-06-22T17:13:27.591Z,17.64
2018-06-22T17:16:01.919Z,17.86
2018-06-22T17:18:36.666Z,18.03
2018-06-22T17:21:06.543Z,18.26
2018-06-22T17:23:36.040Z,18.80
2018-06-22T17:26:06.127Z,18.71
2018-06-22T17:28:35.383Z,18.25
2018-06-22T17:31:04.894Z,17.47
2018-06-22T17:33:33.975Z,17.75
2018-06-22T17:36:04.325Z,17.39
2018-06-22T17:38:33.423Z,17.01
2018-06-22T17:41:02.542Z,16.84
2018-06-22T17:43:31.640Z,16.58
2018-06-22T17:46:00.739Z,16.57
2018-06-22T17:48:30.647Z,16.63
2018-06-22T17:50:59.736Z,16.49
2018-06-22T17:53:29.390Z,16.27
2018-06-22T17:55:58.978Z,16.31
2018-06-22T17:58:28.072Z,16.42
2018-06-22T18:01:03.123Z,16.58
2018-06-22T18:04:44.419Z,16.43
2018-06-22T18:07:21.283Z,16.22
2018-06-22T18:09:56.222Z,16.22
2018-06-22T18:12:31.139Z,16.31
2018-06-22T18:15:00.750Z,16.37
2018-06-22T18:17:30.672Z,16.39
2018-06-22T18:20:00.635Z,16.64
2018-06-22T18:22:29.938Z,16.92
2018-06-22T18:24:59.574Z,17.09
2018-06-22T18:27:30.576Z,17.18
2018-06-22T18:29:59.778Z,16.94
2018-06-22T18:32:29.092Z,17.13
2018-06-22T18:34:58.474Z,17.16
2018-06-22T18:37:27.770Z,16.92
2018-06-22T18:39:57.477Z,17.07
2018-06-22T18:42:28.498Z,17.03
2018-06-22T18:44:57.579Z,16.68
2018-06-22T18:47:27.115Z,16.47
2018-06-22T18:49:56.371Z,16.16
2018-06-22T18:52:31.265Z,15.91
2018-06-22T18:55:05.540Z,15.70
2018-06-22T18:57:39.771Z,15.58
2018-06-22T19:00:14.231Z,15.36
2018-06-22T19:02:49.121Z,15.33
2018-06-22T19:05:18.721Z,15.27
2018-06-22T19:07:47.859Z,15.10
2018-06-22T19:10:16.962Z,15.05
2018-06-22T19:12:46.940Z,14.90
2018-06-22T19:15:16.554Z,14.89
2018-06-22T19:17:45.674Z,14.61
2018-06-22T19:20:14.759Z,14.45
2018-06-22T19:22:43.899Z,14.25
2018-06-22T19:25:12.980Z,14.21
2018-06-22T19:27:42.199Z,14.19
2018-06-22T19:30:11.294Z,14.04
2018-06-22T19:32:40.842Z,13.94
2018-06-22T19:35:13.375Z,13.88
2018-06-22T19:37:43.918Z,13.77
2018-06-22T19:40:13.986Z,13.69
2018-06-22T19:42:43.291Z,13.70
2018-06-22T19:45:17.675Z,13.50
2018-06-22T19:47:52.443Z,13.22
2018-06-22T19:50:26.758Z,13.08
2018-06-22T19:53:01.278Z,13.21
2018-06-22T19:55:30.698Z,13.00
2018-06-22T19:58:00.035Z,12.81
2018-06-22T20:00:29.375Z,12.74
2018-06-22T20:02:59.851Z,12.52
2018-06-22T20:05:28.908Z,12.34
2018-06-22T20:07:57.975Z,12.19
2018-06-22T20:10:27.197Z,12.00
2018-06-22T20:12:56.282Z,11.96
2018-06-22T20:15:25.954Z,11.92
2018-06-22T20:17:55.823Z,11.80
2018-06-22T20:20:25.050Z,11.68
2018-06-22T20:22:54.111Z,11.69
2018-06-22T20:25:28.431Z,11.55
2018-06-22T20:27:57.631Z,11.40
2018-06-22T20:30:26.739Z,11.37
2018-06-22T20:32:55.888Z,11.29
2018-06-22T20:35:30.625Z,11.32
2018-06-22T20:38:04.911Z,11.23
2018-06-22T20:40:39.207Z,11.03
2018-06-22T20:43:13.622Z,10.82
2018-06-22T20:45:47.919Z,10.59
2018-06-22T20:48:23.343Z,10.57
2018-06-22T20:50:52.915Z,10.60
2018-06-22T20:53:22.033Z,10.53
2018-06-22T20:55:51.944Z,10.58
2018-06-22T20:58:21.461Z,10.55
2018-06-22T21:00:51.820Z,10.58
2018-06-22T21:03:21.355Z,10.51
2018-06-22T21:05:50.699Z,10.63
2018-06-22T21:08:23.903Z,10.66
2018-06-22T21:10:53.677Z,10.56
2018-06-22T21:13:25.792Z,10.55
2018-06-22T21:15:55.188Z,10.49
2018-06-22T21:18:25.091Z,10.49
2018-06-22T21:21:01.130Z,10.45
2018-06-22T21:23:30.823Z,10.24
2018-06-22T21:26:00.149Z,10.23
2018-06-22T21:28:34.875Z,10.25
2018-06-22T21:31:09.315Z,10.30
2018-06-22T21:33:43.870Z,10.33
2018-06-22T21:36:18.587Z,10.33
2018-06-22T21:38:59.586Z,10.20
2018-06-22T21:41:28.844Z,10.18
2018-06-22T21:43:59.145Z,9.96
2018-06-22T21:46:28.426Z,9.84
2018-06-22T21:48:58.046Z,9.89
2018-06-22T21:51:27.674Z,9.93
2018-06-22T21:53:57.083Z,9.84
2018-06-22T21:56:26.681Z,9.88
2018-06-22T21:58:57.072Z,9.83
2018-06-22T22:01:26.178Z,9.59
2018-06-22T22:03:55.792Z,9.45
2018-06-22T22:06:24.934Z,9.40
2018-06-22T22:08:54.542Z,9.43
2018-06-22T22:11:27.965Z,9.53
2018-06-22T22:13:57.574Z,9.57
2018-06-22T22:16:26.779Z,9.58
2018-06-22T22:19:01.575Z,9.62
2018-06-22T22:21:30.834Z,9.61
2018-06-22T22:24:00.594Z,9.40
2018-06-22T22:26:29.835Z,9.38
2018-06-22T22:29:00.468Z,9.25
2018-06-22T22:31:31.888Z,9.24
2018-06-22T22:34:01.960Z,9.10
2018-06-22T22:36:32.043Z,9.13
2018-06-22T22:39:02.379Z,9.14
2018-06-22T22:41:31.692Z,8.88
2018-06-22T22:44:01.539Z,8.88
2018-06-22T22:46:33.135Z,8.80
2018-06-22T22:49:02.515Z,8.81
2018-06-22T22:51:31.577Z,8.67
2018-06-22T22:54:00.731Z,8.73
2018-06-22T22:56:29.827Z,8.70
2018-06-22T22:58:59.215Z,8.70
2018-06-22T23:01:28.321Z,8.73
2018-06-22T23:03:57.611Z,8.88
2018-06-22T23:06:26.768Z,8.83
2018-06-22T23:08:56.468Z,8.72
2018-06-22T23:11:25.810Z,8.81
2018-06-22T23:13:55.134Z,8.71
2018-06-22T23:16:24.497Z,8.63
2018-06-22T23:18:53.902Z,8.45
2018-06-22T23:21:23.817Z,8.60
2018-06-22T23:23:54.191Z,8.54
2018-06-22T23:26:23.483Z,8.56
2018-06-22T23:28:52.596Z,8.61
2018-06-22T23:31:21.774Z,8.62
2018-06-22T23:33:50.838Z,8.42
2018-06-22T23:36:19.927Z,8.33
2018-06-22T23:38:49.054Z,8.00
2018-06-22T23:41:18.402Z,8.13
2018-06-22T23:43:47.542Z,8.20
2018-06-22T23:46:16.663Z,8.02
2018-06-22T23:48:45.723Z,8.09
2018-06-22T23:51:14.803Z,8.03
2018-06-22T23:53:43.894Z,7.96
2018-06-22T23:56:12.986Z,7.86
2018-06-22T23:58:42.092Z,7.74
